createdAt,value
2023-02-11T00:02:05.520Z,13.72
2023-02-11T00:04:37.493Z,13.70
2023-02-11T00:07:09.436Z,13.67
2023-02-11T00:09:41.381Z,13.64
2023-02-11T00:12:13.410Z,13.61
2023-02-11T00:14:45.335Z,13.59
2023-02-11T00:17:17.773Z,13.56
2023-02-11T00:19:51.062Z,13.54
2023-02-11T00:22:23.205Z,13.51
2023-02-11T00:24:57.271Z,13.49
2023-02-11T00:27:29.204Z,13.46
2023-02-11T00:30:02.461Z,13.44
2023-02-11T00:32:35.878Z,13.42
2023-02-11T00:35:08.145Z,13.40
2023-02-11T00:37:40.102Z,13.38
2023-02-11T00:40:12.500Z,13.35
2023-02-11T00:42:44.493Z,13.34
2023-02-11T00:45:16.417Z,13.31
2023-02-11T00:47:48.498Z,13.29
2023-02-11T00:50:20.529Z,13.27
2023-02-11T00:52:53.280Z,13.25
2023-02-11T00:55:25.178Z,13.24
2023-02-11T00:57:59.082Z,13.21
2023-02-11T01:00:30.973Z,13.19
2023-02-11T01:03:03.133Z,13.17
2023-02-11T01:05:35.226Z,13.14
2023-02-11T01:08:07.923Z,13.12
2023-02-11T01:10:39.817Z,13.11
2023-02-11T01:13:11.817Z,13.09
2023-02-11T01:15:43.798Z,13.06
2023-02-11T01:18:15.848Z,13.05
2023-02-11T01:20:47.814Z,13.02
2023-02-11T01:23:20.048Z,13.01
2023-02-11T01:25:52.304Z,12.99
2023-02-11T01:28:26.880Z,12.97
2023-02-11T01:31:00.212Z,12.95
2023-02-11T01:33:32.245Z,12.93
2023-02-11T01:36:05.603Z,12.91
2023-02-11T01:38:37.815Z,12.89
2023-02-11T01:41:12.725Z,12.88
2023-02-11T01:43:47.966Z,12.86
2023-02-11T01:46:31.420Z,12.85
2023-02-11T01:49:13.048Z,12.84
2023-02-11T01:51:48.364Z,12.84
2023-02-11T01:54:43.309Z,12.86
2023-02-11T01:57:23.500Z,12.91
2023-02-11T02:00:17.445Z,12.98
2023-02-11T02:03:00.550Z,13.08
2023-02-11T02:06:08.093Z,13.20
2023-02-11T02:08:52.125Z,13.36
2023-02-11T02:11:24.084Z,13.52
2023-02-11T02:13:56.020Z,13.67
2023-02-11T02:16:37.641Z,13.85
2023-02-11T02:19:43.735Z,14.05
2023-02-11T02:22:41.582Z,14.28
2023-02-11T02:26:15.865Z,14.53
2023-02-11T02:29:24.495Z,14.83
2023-02-11T02:32:30.822Z,15.09
2023-02-11T02:35:05.321Z,15.31
2023-02-11T02:37:42.042Z,15.49
2023-02-11T02:40:33.853Z,15.64
2023-02-11T02:43:07.955Z,15.79
2023-02-11T02:45:39.960Z,15.90
2023-02-11T02:48:28.473Z,16.00
2023-02-11T02:51:22.350Z,16.09
2023-02-11T02:53:58.010Z,16.17
2023-02-11T02:57:08.892Z,16.23
2023-02-11T02:59:54.486Z,16.28
2023-02-11T03:02:30.967Z,16.32
2023-02-11T03:05:05.733Z,16.34
2023-02-11T03:07:57.292Z,16.36
2023-02-11T03:10:36.440Z,16.37
2023-02-11T03:13:08.993Z,16.37
2023-02-11T03:15:44.036Z,16.37
2023-02-11T03:18:18.374Z,16.36
2023-02-11T03:20:53.663Z,16.35
2023-02-11T03:23:49.188Z,16.32
2023-02-11T03:26:30.492Z,16.29
2023-02-11T03:29:39.801Z,16.27
2023-02-11T03:32:29.754Z,16.23
2023-02-11T03:35:21.668Z,16.20
2023-02-11T03:38:25.594Z,16.16
2023-02-11T03:40:58.664Z,16.11
2023-02-11T03:43:43.124Z,16.06
2023-02-11T03:46:18.405Z,16.02
2023-02-11T03:48:54.054Z,15.97
2023-02-11T03:51:27.751Z,15.93
2023-02-11T03:54:02.027Z,15.88
2023-02-11T03:56:38.093Z,15.84
2023-02-11T03:59:10.055Z,15.79
2023-02-11T04:01:42.127Z,15.74
2023-02-11T04:04:14.176Z,15.70
2023-02-11T04:06:46.310Z,15.64
2023-02-11T04:09:18.199Z,15.60
2023-02-11T04:11:50.143Z,15.56
2023-02-11T04:14:22.009Z,15.50
2023-02-11T04:16:53.977Z,15.46
2023-02-11T04:19:25.831Z,15.41
2023-02-11T04:21:57.951Z,15.37
2023-02-11T04:24:30.025Z,15.32
2023-02-11T04:27:02.020Z,15.27
2023-02-11T04:29:34.014Z,15.22
2023-02-11T04:32:06.008Z,15.18
2023-02-11T04:34:38.207Z,15.13
2023-02-11T04:37:10.140Z,15.08
2023-02-11T04:39:42.102Z,15.04
2023-02-11T04:42:14.035Z,15.00
2023-02-11T04:44:46.018Z,14.96
2023-02-11T04:47:17.974Z,14.92
2023-02-11T04:49:49.879Z,14.88
2023-02-11T04:52:21.824Z,14.83
2023-02-11T04:54:53.900Z,14.79
2023-02-11T04:57:25.833Z,14.75
2023-02-11T04:59:57.822Z,14.71
2023-02-11T05:02:29.820Z,14.67
2023-02-11T05:05:01.770Z,14.63
2023-02-11T05:07:33.879Z,14.60
2023-02-11T05:10:06.033Z,14.58
2023-02-11T05:12:37.945Z,14.58
2023-02-11T05:15:10.044Z,14.58
2023-02-11T05:17:41.966Z,14.62
2023-02-11T05:20:13.874Z,14.65
2023-02-11T05:22:45.963Z,14.71
2023-02-11T05:25:18.123Z,14.79
2023-02-11T05:27:50.121Z,14.88
2023-02-11T05:30:22.182Z,14.97
2023-02-11T05:32:54.174Z,15.09
2023-02-11T05:35:26.253Z,15.22
2023-02-11T05:37:58.157Z,15.35
2023-02-11T05:40:30.055Z,15.50
2023-02-11T05:43:02.132Z,15.66
2023-02-11T05:45:34.488Z,15.83
2023-02-11T05:48:06.405Z,16.00
2023-02-11T05:50:38.303Z,16.16
2023-02-11T05:53:10.266Z,16.31
2023-02-11T05:55:42.254Z,16.46
2023-02-11T05:58:14.181Z,16.61
2023-02-11T06:00:46.112Z,16.75
2023-02-11T06:03:18.081Z,16.87
2023-02-11T06:05:50.439Z,17.00
2023-02-11T06:08:22.602Z,17.12
2023-02-11T06:10:54.511Z,17.23
2023-02-11T06:13:26.427Z,17.34
2023-02-11T06:15:59.836Z,17.44
2023-02-11T06:18:33.788Z,17.55
2023-02-11T06:21:10.567Z,17.65
2023-02-11T06:23:43.463Z,17.75
2023-02-11T06:26:21.832Z,17.84
2023-02-11T06:28:53.837Z,17.93
2023-02-11T06:31:25.848Z,18.00
2023-02-11T06:33:59.537Z,18.07
2023-02-11T06:36:31.896Z,18.14
2023-02-11T06:39:04.184Z,18.19
2023-02-11T06:41:36.245Z,18.23
2023-02-11T06:44:08.233Z,18.26
2023-02-11T06:46:40.246Z,18.28
2023-02-11T06:49:12.285Z,18.29
2023-02-11T06:51:44.202Z,18.29
2023-02-11T06:54:16.219Z,18.28
2023-02-11T06:56:48.065Z,18.26
2023-02-11T06:59:23.716Z,18.25
2023-02-11T07:01:55.635Z,18.23
2023-02-11T07:04:27.767Z,18.21
2023-02-11T07:06:59.743Z,18.20
2023-02-11T07:09:31.668Z,18.20
2023-02-11T07:12:07.090Z,18.21
2023-02-11T07:14:39.352Z,18.20
2023-02-11T07:17:11.290Z,18.19
2023-02-11T07:19:43.219Z,18.15
2023-02-11T07:22:15.370Z,18.12
2023-02-11T07:24:47.313Z,18.10
2023-02-11T07:27:19.454Z,18.07
2023-02-11T07:29:51.454Z,18.03
2023-02-11T07:32:23.330Z,17.98
2023-02-11T07:34:55.305Z,17.92
2023-02-11T07:37:27.234Z,17.84
2023-02-11T07:39:59.282Z,17.78
2023-02-11T07:42:31.194Z,17.70
2023-02-11T07:45:03.253Z,17.64
2023-02-11T07:47:35.902Z,17.57
2023-02-11T07:50:08.094Z,17.51
2023-02-11T07:52:39.985Z,17.47
2023-02-11T07:55:11.948Z,17.41
2023-02-11T07:57:44.180Z,17.35
2023-02-11T08:00:19.385Z,17.28
2023-02-11T08:02:53.012Z,17.20
2023-02-11T08:05:24.869Z,17.13
2023-02-11T08:07:56.897Z,17.06
2023-02-11T08:10:28.798Z,17.01
2023-02-11T08:13:00.678Z,16.96
2023-02-11T08:15:32.597Z,16.92
2023-02-11T08:18:04.596Z,16.89
2023-02-11T08:20:36.608Z,16.86
2023-02-11T08:23:08.559Z,16.82
2023-02-11T08:25:40.571Z,16.78
2023-02-11T08:28:12.565Z,16.75
2023-02-11T08:30:44.565Z,16.72
2023-02-11T08:33:16.508Z,16.72
2023-02-11T08:35:48.452Z,16.72
2023-02-11T08:38:20.322Z,16.72
2023-02-11T08:40:52.462Z,16.75
2023-02-11T08:43:27.533Z,16.77
2023-02-11T08:46:02.137Z,16.82
2023-02-11T08:48:34.603Z,16.87
2023-02-11T08:51:12.087Z,16.92
2023-02-11T08:53:44.088Z,16.99
2023-02-11T08:56:17.177Z,17.07
2023-02-11T08:58:49.560Z,17.17
2023-02-11T09:01:24.714Z,17.27
2023-02-11T09:03:57.825Z,17.36
2023-02-11T09:06:30.353Z,17.48
2023-02-11T09:09:02.321Z,17.61
2023-02-11T09:11:35.830Z,17.75
2023-02-11T09:14:08.252Z,17.89
2023-02-11T09:16:40.203Z,18.02
2023-02-11T09:19:12.197Z,18.15
2023-02-11T09:21:44.771Z,18.30
2023-02-11T09:24:16.820Z,18.45
2023-02-11T09:26:49.832Z,18.58
2023-02-11T09:29:21.771Z,18.69
2023-02-11T09:31:53.713Z,18.76
2023-02-11T09:34:25.782Z,18.82
2023-02-11T09:36:57.675Z,18.86
2023-02-11T09:39:30.043Z,18.89
2023-02-11T09:42:01.920Z,18.92
2023-02-11T09:44:36.295Z,18.95
2023-02-11T09:47:32.193Z,18.97
2023-02-11T09:50:11.023Z,18.97
2023-02-11T09:52:53.803Z,18.95
2023-02-11T09:55:30.638Z,18.94
2023-02-11T09:58:12.210Z,18.90
2023-02-11T10:01:01.433Z,18.84
2023-02-11T10:03:44.800Z,18.78
2023-02-11T10:06:40.444Z,18.71
2023-02-11T10:09:34.422Z,18.63
2023-02-11T10:12:15.497Z,18.53
2023-02-11T10:15:06.184Z,18.46
2023-02-11T10:17:53.417Z,18.37
2023-02-11T10:21:00.795Z,18.31
2023-02-11T10:23:39.632Z,18.22
2023-02-11T10:26:19.093Z,18.16
2023-02-11T10:28:53.287Z,18.10
2023-02-11T10:31:42.574Z,18.05
2023-02-11T10:34:15.281Z,17.99
2023-02-11T10:36:47.307Z,17.95
2023-02-11T10:39:21.637Z,17.89
2023-02-11T10:42:02.849Z,17.84
2023-02-11T10:44:50.961Z,17.78
2023-02-11T10:47:25.283Z,17.71
2023-02-11T10:50:03.629Z,17.67
2023-02-11T10:52:35.566Z,17.61
2023-02-11T10:55:10.586Z,17.55
2023-02-11T10:58:03.123Z,17.50
2023-02-11T11:00:43.117Z,17.43
2023-02-11T11:03:20.794Z,17.36
2023-02-11T11:05:58.163Z,17.30
2023-02-11T11:08:46.035Z,17.22
2023-02-11T11:11:22.965Z,17.16
2023-02-11T11:14:00.493Z,17.08
2023-02-11T11:16:36.836Z,17.02
2023-02-11T11:19:08.786Z,16.97
2023-02-11T11:21:51.633Z,16.90
2023-02-11T11:24:27.659Z,16.84
2023-02-11T11:27:02.906Z,16.79
2023-02-11T11:29:43.141Z,16.73
2023-02-11T11:32:21.694Z,16.67
2023-02-11T11:34:58.335Z,16.61
2023-02-11T11:37:32.855Z,16.55
2023-02-11T11:40:13.988Z,16.50
2023-02-11T11:42:45.942Z,16.43
2023-02-11T11:45:20.674Z,16.37
2023-02-11T11:48:18.650Z,16.32
2023-02-11T11:50:52.980Z,16.27
2023-02-11T11:53:46.044Z,16.24
2023-02-11T11:56:23.833Z,16.20
2023-02-11T11:58:56.325Z,16.19
2023-02-11T12:01:34.199Z,16.19
2023-02-11T12:04:19.411Z,16.22
2023-02-11T12:07:16.746Z,16.26
2023-02-11T12:10:10.307Z,16.34
2023-02-11T12:12:54.345Z,16.43
2023-02-11T12:15:41.559Z,16.54
2023-02-11T12:18:38.433Z,16.67
2023-02-11T12:21:19.372Z,16.81
2023-02-11T12:24:21.454Z,16.96
2023-02-11T12:27:09.908Z,17.12
2023-02-11T12:29:50.777Z,17.28
2023-02-11T12:32:33.686Z,17.43
2023-02-11T12:35:19.154Z,17.57
2023-02-11T12:38:03.305Z,17.71
2023-02-11T12:40:42.101Z,17.84
2023-02-11T12:43:29.090Z,17.95
2023-02-11T12:46:11.138Z,18.05
2023-02-11T12:48:49.302Z,18.14
2023-02-11T12:51:34.525Z,18.22
2023-02-11T12:54:09.322Z,18.27
2023-02-11T12:56:52.363Z,18.31
2023-02-11T12:59:48.509Z,18.34
2023-02-11T13:02:45.960Z,18.36
2023-02-11T13:05:55.038Z,18.36
2023-02-11T13:08:37.381Z,18.36
2023-02-11T13:11:17.586Z,18.34
2023-02-11T13:13:58.705Z,18.33
2023-02-11T13:16:37.435Z,18.30
2023-02-11T13:19:31.123Z,18.27
2023-02-11T13:22:05.819Z,18.26
2023-02-11T13:24:55.018Z,18.23
2023-02-11T13:27:27.027Z,18.19
2023-02-11T13:30:34.723Z,18.15
2023-02-11T13:33:15.686Z,18.09
2023-02-11T13:36:12.542Z,18.05
2023-02-11T13:39:04.323Z,17.98
2023-02-11T13:41:41.853Z,17.93
2023-02-11T13:44:15.738Z,17.87
2023-02-11T13:46:57.445Z,17.80
2023-02-11T13:49:41.521Z,17.73
2023-02-11T13:52:34.354Z,17.67
2023-02-11T13:55:12.357Z,17.60
2023-02-11T13:57:44.344Z,17.53
2023-02-11T14:00:34.375Z,17.48
2023-02-11T14:03:31.166Z,17.42
2023-02-11T14:06:28.098Z,17.35
2023-02-11T14:09:09.605Z,17.28
2023-02-11T14:11:41.919Z,17.23
2023-02-11T14:14:26.969Z,17.17
2023-02-11T14:17:01.185Z,17.10
2023-02-11T14:19:44.058Z,17.05
2023-02-11T14:22:43.481Z,16.99
2023-02-11T14:25:25.477Z,16.92
2023-02-11T14:28:22.409Z,16.87
2023-02-11T14:31:10.358Z,16.81
2023-02-11T14:33:48.763Z,16.76
2023-02-11T14:37:05.164Z,16.70
2023-02-11T14:39:43.638Z,16.64
2023-02-11T14:42:21.073Z,16.58
2023-02-11T14:44:55.786Z,16.54
2023-02-11T14:47:35.766Z,16.48
2023-02-11T14:50:14.741Z,16.43
2023-02-11T14:52:47.467Z,16.37
2023-02-11T14:55:27.632Z,16.33
2023-02-11T14:58:06.541Z,16.27
2023-02-11T15:00:47.123Z,16.22
2023-02-11T15:03:25.270Z,16.18
2023-02-11T15:06:22.544Z,16.12
2023-02-11T15:09:01.168Z,16.07
2023-02-11T15:11:40.502Z,16.02
2023-02-11T15:14:22.691Z,15.97
2023-02-11T15:16:57.695Z,15.93
2023-02-11T15:19:34.402Z,15.88
2023-02-11T15:22:22.439Z,15.83
2023-02-11T15:25:10.494Z,15.78
2023-02-11T15:27:45.627Z,15.76
2023-02-11T15:30:25.173Z,15.73
2023-02-11T15:33:03.217Z,15.72
2023-02-11T15:35:39.980Z,15.72
2023-02-11T15:38:13.187Z,15.73
2023-02-11T15:41:01.113Z,15.78
2023-02-11T15:43:47.662Z,15.84
2023-02-11T15:46:23.823Z,15.93
2023-02-11T15:48:55.833Z,16.02
2023-02-11T15:51:31.444Z,16.12
2023-02-11T15:54:20.927Z,16.24
2023-02-11T15:56:56.119Z,16.38
2023-02-11T15:59:39.102Z,16.52
2023-02-11T16:02:36.773Z,16.68
2023-02-11T16:05:09.794Z,16.86
2023-02-11T16:07:46.186Z,17.00
2023-02-11T16:10:26.344Z,17.15
2023-02-11T16:13:07.388Z,17.30
2023-02-11T16:15:51.117Z,17.43
2023-02-11T16:18:51.969Z,17.56
2023-02-11T16:21:42.615Z,17.68
2023-02-11T16:24:31.760Z,17.77
2023-02-11T16:27:06.921Z,17.85
2023-02-11T16:29:38.982Z,17.90
2023-02-11T16:32:13.991Z,17.95
2023-02-11T16:34:46.208Z,17.98
2023-02-11T16:37:18.170Z,18.01
2023-02-11T16:39:50.459Z,18.02
2023-02-11T16:42:22.479Z,18.03
2023-02-11T16:44:54.492Z,18.03
2023-02-11T16:47:28.419Z,18.03
2023-02-11T16:50:01.022Z,18.01
2023-02-11T16:52:33.402Z,17.99
2023-02-11T16:55:06.369Z,17.97
2023-02-11T16:57:38.150Z,17.95
2023-02-11T17:00:11.596Z,17.92
2023-02-11T17:02:43.679Z,17.88
2023-02-11T17:05:20.166Z,17.85
2023-02-11T17:07:52.521Z,17.81
2023-02-11T17:10:24.750Z,17.77
2023-02-11T17:12:56.604Z,17.73
2023-02-11T17:15:28.629Z,17.69
2023-02-11T17:18:00.501Z,17.64
2023-02-11T17:20:32.510Z,17.60
2023-02-11T17:23:04.588Z,17.55
2023-02-11T17:25:40.830Z,17.50
2023-02-11T17:28:12.705Z,17.44
2023-02-11T17:30:44.615Z,17.39
2023-02-11T17:33:16.662Z,17.34
2023-02-11T17:35:48.594Z,17.29
2023-02-11T17:38:20.587Z,17.24
2023-02-11T17:41:00.198Z,17.19
2023-02-11T17:43:32.290Z,17.13
2023-02-11T17:46:08.650Z,17.08
2023-02-11T17:48:40.583Z,17.03
2023-02-11T17:51:26.112Z,16.97
2023-02-11T17:54:00.149Z,16.92
2023-02-11T17:56:33.867Z,16.87
2023-02-11T17:59:08.556Z,16.81
2023-02-11T18:01:43.799Z,16.77
2023-02-11T18:04:18.541Z,16.71
2023-02-11T18:06:50.580Z,16.66
2023-02-11T18:09:22.501Z,16.62
2023-02-11T18:11:55.045Z,16.57
2023-02-11T18:14:26.970Z,16.52
2023-02-11T18:16:59.015Z,16.48
2023-02-11T18:19:33.255Z,16.43
2023-02-11T18:22:05.447Z,16.39
2023-02-11T18:24:37.403Z,16.33
2023-02-11T18:27:09.521Z,16.30
2023-02-11T18:29:41.831Z,16.25
2023-02-11T18:32:14.280Z,16.21
2023-02-11T18:34:46.235Z,16.17
2023-02-11T18:37:18.315Z,16.13
2023-02-11T18:39:50.281Z,16.09
2023-02-11T18:42:22.203Z,16.04
2023-02-11T18:44:54.138Z,16.00
2023-02-11T18:47:26.289Z,15.97
2023-02-11T18:49:58.368Z,15.93
2023-02-11T18:52:31.577Z,15.89
2023-02-11T18:55:04.211Z,15.85
2023-02-11T18:57:36.136Z,15.81
2023-02-11T19:00:10.232Z,15.78
2023-02-11T19:02:42.708Z,15.73
2023-02-11T19:05:15.901Z,15.70
2023-02-11T19:07:47.823Z,15.66
2023-02-11T19:10:19.737Z,15.63
2023-02-11T19:12:59.194Z,15.60
2023-02-11T19:15:31.613Z,15.57
2023-02-11T19:18:03.568Z,15.54
2023-02-11T19:20:35.482Z,15.54
2023-02-11T19:23:07.606Z,15.53
2023-02-11T19:25:46.709Z,15.55
2023-02-11T19:28:18.772Z,15.59
2023-02-11T19:30:50.743Z,15.63
2023-02-11T19:33:22.850Z,15.70
2023-02-11T19:35:54.749Z,15.79
2023-02-11T19:38:27.311Z,15.89
2023-02-11T19:40:59.277Z,16.00
2023-02-11T19:43:31.291Z,16.12
2023-02-11T19:46:04.823Z,16.25
2023-02-11T19:48:36.903Z,16.40
2023-02-11T19:51:13.327Z,16.55
2023-02-11T19:53:46.368Z,16.71
2023-02-11T19:56:20.730Z,16.86
2023-02-11T19:58:52.909Z,17.02
2023-02-11T20:01:25.885Z,17.17
2023-02-11T20:03:57.897Z,17.31
2023-02-11T20:06:32.283Z,17.44
2023-02-11T20:09:08.312Z,17.56
2023-02-11T20:11:42.178Z,17.66
2023-02-11T20:14:15.634Z,17.75
2023-02-11T20:16:49.817Z,17.82
2023-02-11T20:19:22.756Z,17.88
2023-02-11T20:21:56.078Z,17.93
2023-02-11T20:24:28.126Z,17.97
2023-02-11T20:27:00.025Z,17.99
2023-02-11T20:29:31.947Z,18.01
2023-02-11T20:32:05.047Z,18.01
2023-02-11T20:34:37.152Z,18.01
2023-02-11T20:37:10.067Z,18.01
2023-02-11T20:39:42.210Z,18.01
2023-02-11T20:42:15.232Z,17.99
2023-02-11T20:44:47.213Z,17.97
2023-02-11T20:47:19.139Z,17.95
2023-02-11T20:49:51.177Z,17.92
2023-02-11T20:52:23.220Z,17.89
2023-02-11T20:54:55.152Z,17.86
2023-02-11T20:57:27.091Z,17.82
2023-02-11T20:59:59.074Z,17.78
2023-02-11T21:02:31.162Z,17.74
2023-02-11T21:05:03.115Z,17.69
2023-02-11T21:07:36.574Z,17.65
2023-02-11T21:10:10.450Z,17.61
2023-02-11T21:12:42.315Z,17.55
2023-02-11T21:15:14.664Z,17.51
2023-02-11T21:17:46.537Z,17.46
2023-02-11T21:20:18.748Z,17.42
2023-02-11T21:22:50.677Z,17.37
2023-02-11T21:25:22.740Z,17.31
2023-02-11T21:27:54.685Z,17.26
2023-02-11T21:30:26.557Z,17.20
2023-02-11T21:32:59.522Z,17.16
2023-02-11T21:35:35.595Z,17.10
2023-02-11T21:38:08.049Z,17.06
2023-02-11T21:40:40.067Z,17.01
2023-02-11T21:43:12.047Z,16.95
2023-02-11T21:45:45.215Z,16.89
2023-02-11T21:48:18.013Z,16.86
2023-02-11T21:50:50.007Z,16.81
2023-02-11T21:53:21.990Z,16.76
2023-02-11T21:56:09.369Z,16.71
2023-02-11T21:58:41.291Z,16.66
2023-02-11T22:01:18.483Z,16.61
2023-02-11T22:03:50.469Z,16.56
2023-02-11T22:06:26.459Z,16.52
2023-02-11T22:08:58.768Z,16.47
2023-02-11T22:11:30.700Z,16.43
2023-02-11T22:14:02.711Z,16.39
2023-02-11T22:16:35.050Z,16.34
2023-02-11T22:19:08.006Z,16.29
2023-02-11T22:21:39.840Z,16.26
2023-02-11T22:24:11.729Z,16.22
2023-02-11T22:26:43.661Z,16.17
2023-02-11T22:29:15.644Z,16.13
2023-02-11T22:31:47.629Z,16.09
2023-02-11T22:34:19.624Z,16.05
2023-02-11T22:36:51.548Z,16.02
2023-02-11T22:39:23.733Z,15.98
2023-02-11T22:41:56.997Z,15.94
2023-02-11T22:44:28.960Z,15.90
2023-02-11T22:47:00.878Z,15.86
2023-02-11T22:49:33.611Z,15.82
2023-02-11T22:52:05.603Z,15.79
2023-02-11T22:54:37.615Z,15.75
2023-02-11T22:57:09.506Z,15.71
2023-02-11T22:59:41.436Z,15.67
2023-02-11T23:02:13.512Z,15.64
2023-02-11T23:04:46.100Z,15.60
2023-02-11T23:07:19.348Z,15.57
2023-02-11T23:09:51.246Z,15.53
2023-02-11T23:12:23.196Z,15.50
2023-02-11T23:14:55.119Z,15.46
2023-02-11T23:17:29.100Z,15.43
2023-02-11T23:20:01.136Z,15.39
2023-02-11T23:22:34.130Z,15.36
2023-02-11T23:25:05.970Z,15.32
2023-02-11T23:27:38.111Z,15.30
2023-02-11T23:30:10.519Z,15.26
2023-02-11T23:32:42.902Z,15.23
2023-02-11T23:35:22.230Z,15.19
2023-02-11T23:37:54.189Z,15.15
2023-02-11T23:40:26.071Z,15.12
2023-02-11T23:42:58.083Z,15.09
2023-02-11T23:45:30.180Z,15.06
2023-02-11T23:48:02.186Z,15.02
2023-02-11T23:50:34.766Z,14.99
2023-02-11T23:53:06.702Z,14.95
2023-02-11T23:55:43.395Z,14.92
2023-02-11T23:58:15.937Z,14.89
